sensor_id;sensor_type;location;lat;lon;timestamp;P1;durP1;ratioP1;P2;durP2;ratioP2
55641;SDS011;41509;53.108;6.100;2023-03-23T00:02:28;4.53;;;2.73;;
55641;SDS011;41509;53.108;6.100;2023-03-23T00:05:01;7.18;;;3.83;;
55641;SDS011;41509;53.108;6.100;2023-03-23T00:07:28;11.05;;;4.40;;
55641;SDS011;41509;53.108;6.100;2023-03-23T00:09:54;6.32;;;4.10;;
55641;SDS011;41509;53.108;6.100;2023-03-23T00:12:23;10.50;;;5.53;;
55641;SDS011;41509;53.108;6.100;2023-03-23T00:14:54;10.98;;;5.45;;
55641;SDS011;41509;53.108;6.100;2023-03-23T00:17:20;9.85;;;6.03;;
55641;SDS011;41509;53.108;6.100;2023-03-23T00:19:46;11.15;;;6.30;;
55641;SDS011;41509;53.108;6.100;2023-03-23T00:22:15;11.43;;;5.87;;
55641;SDS011;41509;53.108;6.100;2023-03-23T00:24:42;12.05;;;6.75;;
55641;SDS011;41509;53.108;6.100;2023-03-23T00:27:09;11.93;;;7.22;;
55641;SDS011;41509;53.108;6.100;2023-03-23T00:29:37;13.10;;;7.63;;
55641;SDS011;41509;53.108;6.100;2023-03-23T00:32:04;12.05;;;7.38;;
55641;SDS011;41509;53.108;6.100;2023-03-23T00:34:30;11.33;;;7.43;;
55641;SDS011;41509;53.108;6.100;2023-03-23T00:36:57;16.42;;;7.75;;
55641;SDS011;41509;53.108;6.100;2023-03-23T00:39:24;15.02;;;7.57;;
55641;SDS011;41509;53.108;6.100;2023-03-23T00:41:51;11.30;;;7.22;;
55641;SDS011;41509;53.108;6.100;2023-03-23T00:44:26;11.20;;;7.05;;
55641;SDS011;41509;53.108;6.100;2023-03-23T00:46:56;10.23;;;5.50;;
55641;SDS011;41509;53.108;6.100;2023-03-23T00:49:25;8.25;;;5.15;;
55641;SDS011;41509;53.108;6.100;2023-03-23T00:51:52;7.72;;;4.18;;
55641;SDS011;41509;53.108;6.100;2023-03-23T00:54:19;9.43;;;3.42;;
55641;SDS011;41509;53.108;6.100;2023-03-23T00:56:45;6.60;;;3.10;;
55641;SDS011;41509;53.108;6.100;2023-03-23T00:59:11;5.47;;;2.85;;
55641;SDS011;41509;53.108;6.100;2023-03-23T01:01:40;5.60;;;3.42;;
55641;SDS011;41509;53.108;6.100;2023-03-23T01:04:08;6.10;;;3.10;;
55641;SDS011;41509;53.108;6.100;2023-03-23T01:06:37;6.38;;;3.00;;
55641;SDS011;41509;53.108;6.100;2023-03-23T01:09:05;7.03;;;3.00;;
55641;SDS011;41509;53.108;6.100;2023-03-23T01:11:32;6.30;;;3.20;;
55641;SDS011;41509;53.108;6.100;2023-03-23T01:13:58;5.70;;;2.97;;
55641;SDS011;41509;53.108;6.100;2023-03-23T01:16:25;7.45;;;3.50;;
55641;SDS011;41509;53.108;6.100;2023-03-23T01:18:53;5.85;;;3.17;;
55641;SDS011;41509;53.108;6.100;2023-03-23T01:21:19;5.45;;;3.75;;
55641;SDS011;41509;53.108;6.100;2023-03-23T01:23:46;6.18;;;3.95;;
55641;SDS011;41509;53.108;6.100;2023-03-23T01:26:13;6.25;;;3.50;;
55641;SDS011;41509;53.108;6.100;2023-03-23T01:28:44;8.70;;;4.57;;
55641;SDS011;41509;53.108;6.100;2023-03-23T01:31:11;7.93;;;3.40;;
55641;SDS011;41509;53.108;6.100;2023-03-23T01:33:39;9.32;;;4.15;;
55641;SDS011;41509;53.108;6.100;2023-03-23T01:38:33;8.33;;;4.50;;
55641;SDS011;41509;53.108;6.100;2023-03-23T01:41:00;9.15;;;4.20;;
55641;SDS011;41509;53.108;6.100;2023-03-23T01:43:26;12.38;;;4.63;;
55641;SDS011;41509;53.108;6.100;2023-03-23T01:45:51;8.87;;;3.90;;
55641;SDS011;41509;53.108;6.100;2023-03-23T01:48:18;11.57;;;4.50;;
55641;SDS011;41509;53.108;6.100;2023-03-23T01:53:22;9.85;;;4.00;;
55641;SDS011;41509;53.108;6.100;2023-03-23T01:55:49;10.52;;;4.38;;
55641;SDS011;41509;53.108;6.100;2023-03-23T01:58:19;8.68;;;4.88;;
55641;SDS011;41509;53.108;6.100;2023-03-23T02:00:50;8.85;;;3.40;;
55641;SDS011;41509;53.108;6.100;2023-03-23T02:03:18;7.93;;;4.03;;
55641;SDS011;41509;53.108;6.100;2023-03-23T02:05:48;10.25;;;4.22;;
55641;SDS011;41509;53.108;6.100;2023-03-23T02:08:16;6.82;;;3.58;;
55641;SDS011;41509;53.108;6.100;2023-03-23T02:10:43;9.13;;;3.65;;
55641;SDS011;41509;53.108;6.100;2023-03-23T02:13:09;7.90;;;4.18;;
55641;SDS011;41509;53.108;6.100;2023-03-23T02:16:23;7.15;;;3.70;;
55641;SDS011;41509;53.108;6.100;2023-03-23T02:19:13;6.68;;;3.78;;
55641;SDS011;41509;53.108;6.100;2023-03-23T02:32:50;5.38;;;3.25;;
55641;SDS011;41509;53.108;6.100;2023-03-23T02:35:44;6.20;;;3.80;;
55641;SDS011;41509;53.108;6.100;2023-03-23T02:38:21;7.95;;;3.50;;
55641;SDS011;41509;53.108;6.100;2023-03-23T02:41:00;5.57;;;3.05;;
55641;SDS011;41509;53.108;6.100;2023-03-23T02:43:30;10.20;;;3.38;;
55641;SDS011;41509;53.108;6.100;2023-03-23T02:45:59;6.82;;;3.40;;
55641;SDS011;41509;53.108;6.100;2023-03-23T02:48:31;7.28;;;3.53;;
55641;SDS011;41509;53.108;6.100;2023-03-23T02:50:57;6.28;;;3.30;;
55641;SDS011;41509;53.108;6.100;2023-03-23T02:53:28;7.05;;;3.42;;
55641;SDS011;41509;53.108;6.100;2023-03-23T02:55:55;8.02;;;3.72;;
55641;SDS011;41509;53.108;6.100;2023-03-23T02:58:22;5.80;;;3.00;;
55641;SDS011;41509;53.108;6.100;2023-03-23T03:00:50;6.97;;;2.70;;
55641;SDS011;41509;53.108;6.100;2023-03-23T03:03:22;6.53;;;3.05;;
55641;SDS011;41509;53.108;6.100;2023-03-23T03:06:08;8.85;;;2.90;;
55641;SDS011;41509;53.108;6.100;2023-03-23T03:08:55;10.80;;;3.53;;
55641;SDS011;41509;53.108;6.100;2023-03-23T03:11:48;5.65;;;2.90;;
55641;SDS011;41509;53.108;6.100;2023-03-23T03:14:31;7.20;;;2.67;;
55641;SDS011;41509;53.108;6.100;2023-03-23T03:17:06;6.07;;;2.60;;
55641;SDS011;41509;53.108;6.100;2023-03-23T03:19:45;5.55;;;2.50;;
55641;SDS011;41509;53.108;6.100;2023-03-23T03:22:14;5.53;;;3.17;;
55641;SDS011;41509;53.108;6.100;2023-03-23T03:24:41;6.45;;;2.85;;
55641;SDS011;41509;53.108;6.100;2023-03-23T03:27:16;4.90;;;2.65;;
55641;SDS011;41509;53.108;6.100;2023-03-23T03:29:44;6.22;;;2.60;;
55641;SDS011;41509;53.108;6.100;2023-03-23T03:32:16;4.50;;;2.40;;
55641;SDS011;41509;53.108;6.100;2023-03-23T03:34:45;6.78;;;2.92;;
55641;SDS011;41509;53.108;6.100;2023-03-23T03:37:12;6.25;;;2.83;;
55641;SDS011;41509;53.108;6.100;2023-03-23T03:39:40;5.63;;;2.70;;
55641;SDS011;41509;53.108;6.100;2023-03-23T03:42:05;5.77;;;2.40;;
55641;SDS011;41509;53.108;6.100;2023-03-23T03:44:32;9.25;;;2.88;;
55641;SDS011;41509;53.108;6.100;2023-03-23T03:46:58;7.68;;;3.03;;
55641;SDS011;41509;53.108;6.100;2023-03-23T03:49:24;5.10;;;2.85;;
55641;SDS011;41509;53.108;6.100;2023-03-23T03:51:50;7.93;;;3.15;;
55641;SDS011;41509;53.108;6.100;2023-03-23T03:54:16;6.17;;;2.87;;
55641;SDS011;41509;53.108;6.100;2023-03-23T03:56:42;6.73;;;3.17;;
55641;SDS011;41509;53.108;6.100;2023-03-23T03:59:08;7.38;;;1.95;;
55641;SDS011;41509;53.108;6.100;2023-03-23T04:01:38;5.57;;;2.90;;
55641;SDS011;41509;53.108;6.100;2023-03-23T04:04:04;4.07;;;1.70;;
55641;SDS011;41509;53.108;6.100;2023-03-23T04:06:32;4.97;;;1.92;;
55641;SDS011;41509;53.108;6.100;2023-03-23T04:09:01;3.83;;;1.40;;
55641;SDS011;41509;53.108;6.100;2023-03-23T04:11:33;3.78;;;1.40;;
55641;SDS011;41509;53.108;6.100;2023-03-23T04:13:59;5.55;;;2.25;;
55641;SDS011;41509;53.108;6.100;2023-03-23T04:16:25;5.23;;;2.17;;
55641;SDS011;41509;53.108;6.100;2023-03-23T04:18:51;4.65;;;2.13;;
55641;SDS011;41509;53.108;6.100;2023-03-23T04:21:16;3.13;;;1.30;;
55641;SDS011;41509;53.108;6.100;2023-03-23T04:23:42;6.97;;;2.00;;
55641;SDS011;41509;53.108;6.100;2023-03-23T04:26:08;3.90;;;2.00;;
55641;SDS011;41509;53.108;6.100;2023-03-23T04:28:37;5.68;;;1.58;;
55641;SDS011;41509;53.108;6.100;2023-03-23T04:31:04;3.97;;;1.58;;
55641;SDS011;41509;53.108;6.100;2023-03-23T04:33:29;3.20;;;1.33;;
55641;SDS011;41509;53.108;6.100;2023-03-23T04:35:56;4.43;;;1.05;;
55641;SDS011;41509;53.108;6.100;2023-03-23T04:38:26;8.63;;;1.50;;
55641;SDS011;41509;53.108;6.100;2023-03-23T04:40:53;4.32;;;1.92;;
55641;SDS011;41509;53.108;6.100;2023-03-23T04:45:52;3.88;;;1.33;;
55641;SDS011;41509;53.108;6.100;2023-03-23T04:48:30;3.42;;;1.20;;
55641;SDS011;41509;53.108;6.100;2023-03-23T04:51:03;4.10;;;1.42;;
55641;SDS011;41509;53.108;6.100;2023-03-23T04:53:37;4.18;;;1.40;;
55641;SDS011;41509;53.108;6.100;2023-03-23T04:58:45;4.22;;;1.77;;
55641;SDS011;41509;53.108;6.100;2023-03-23T05:01:44;9.95;;;2.17;;
55641;SDS011;41509;53.108;6.100;2023-03-23T05:04:52;8.27;;;2.22;;
55641;SDS011;41509;53.108;6.100;2023-03-23T05:08:10;7.80;;;2.08;;
55641;SDS011;41509;53.108;6.100;2023-03-23T05:11:11;6.53;;;2.35;;
55641;SDS011;41509;53.108;6.100;2023-03-23T05:17:59;5.97;;;2.03;;
55641;SDS011;41509;53.108;6.100;2023-03-23T05:21:08;8.50;;;2.20;;
55641;SDS011;41509;53.108;6.100;2023-03-23T05:26:11;9.32;;;1.75;;
55641;SDS011;41509;53.108;6.100;2023-03-23T05:28:47;13.90;;;2.63;;
55641;SDS011;41509;53.108;6.100;2023-03-23T05:31:13;10.93;;;3.20;;
55641;SDS011;41509;53.108;6.100;2023-03-23T05:33:39;11.07;;;1.63;;
55641;SDS011;41509;53.108;6.100;2023-03-23T05:36:19;9.05;;;2.08;;
55641;SDS011;41509;53.108;6.100;2023-03-23T05:38:55;11.52;;;2.80;;
55641;SDS011;41509;53.108;6.100;2023-03-23T05:41:28;11.93;;;2.63;;
55641;SDS011;41509;53.108;6.100;2023-03-23T05:44:28;12.73;;;2.28;;
55641;SDS011;41509;53.108;6.100;2023-03-23T05:46:54;13.77;;;2.38;;
55641;SDS011;41509;53.108;6.100;2023-03-23T05:49:28;10.00;;;2.08;;
55641;SDS011;41509;53.108;6.100;2023-03-23T05:52:00;11.77;;;2.42;;
55641;SDS011;41509;53.108;6.100;2023-03-23T05:54:25;19.35;;;3.38;;
55641;SDS011;41509;53.108;6.100;2023-03-23T05:59:46;11.30;;;2.65;;
55641;SDS011;41509;53.108;6.100;2023-03-23T06:02:28;10.30;;;2.00;;
55641;SDS011;41509;53.108;6.100;2023-03-23T06:06:05;10.77;;;1.83;;
55641;SDS011;41509;53.108;6.100;2023-03-23T06:08:12;13.17;;;2.30;;
55641;SDS011;41509;53.108;6.100;2023-03-23T06:14:27;10.63;;;2.45;;
55641;SDS011;41509;53.108;6.100;2023-03-23T06:17:36;12.95;;;2.10;;
55641;SDS011;41509;53.108;6.100;2023-03-23T06:20:45;14.45;;;2.85;;
55641;SDS011;41509;53.108;6.100;2023-03-23T06:23:13;8.05;;;2.35;;
55641;SDS011;41509;53.108;6.100;2023-03-23T06:25:48;7.32;;;2.20;;
55641;SDS011;41509;53.108;6.100;2023-03-23T06:28:34;4.45;;;1.42;;
55641;SDS011;41509;53.108;6.100;2023-03-23T06:31:04;4.00;;;1.58;;
55641;SDS011;41509;53.108;6.100;2023-03-23T06:33:58;11.57;;;2.67;;
55641;SDS011;41509;53.108;6.100;2023-03-23T06:36:32;7.80;;;1.93;;
55641;SDS011;41509;53.108;6.100;2023-03-23T06:39:11;6.47;;;1.42;;
55641;SDS011;41509;53.108;6.100;2023-03-23T06:41:43;7.22;;;2.47;;
55641;SDS011;41509;53.108;6.100;2023-03-23T06:44:19;8.43;;;1.63;;
55641;SDS011;41509;53.108;6.100;2023-03-23T06:46:51;11.27;;;1.60;;
55641;SDS011;41509;53.108;6.100;2023-03-23T06:49:17;6.55;;;1.27;;
55641;SDS011;41509;53.108;6.100;2023-03-23T06:51:43;7.18;;;2.20;;
55641;SDS011;41509;53.108;6.100;2023-03-23T06:54:12;11.13;;;2.22;;
55641;SDS011;41509;53.108;6.100;2023-03-23T06:56:40;14.25;;;1.65;;
55641;SDS011;41509;53.108;6.100;2023-03-23T06:59:33;9.55;;;2.33;;
55641;SDS011;41509;53.108;6.100;2023-03-23T07:02:16;13.27;;;2.72;;
55641;SDS011;41509;53.108;6.100;2023-03-23T07:04:57;8.05;;;2.63;;
55641;SDS011;41509;53.108;6.100;2023-03-23T07:07:46;13.68;;;2.92;;
55641;SDS011;41509;53.108;6.100;2023-03-23T07:10:21;13.70;;;2.45;;
55641;SDS011;41509;53.108;6.100;2023-03-23T07:13:15;22.90;;;4.00;;
55641;SDS011;41509;53.108;6.100;2023-03-23T07:19:03;12.13;;;2.30;;
55641;SDS011;41509;53.108;6.100;2023-03-23T07:21:35;11.93;;;3.53;;
55641;SDS011;41509;53.108;6.100;2023-03-23T07:24:20;17.00;;;2.88;;
55641;SDS011;41509;53.108;6.100;2023-03-23T07:26:46;17.63;;;3.37;;
55641;SDS011;41509;53.108;6.100;2023-03-23T07:29:14;14.77;;;3.00;;
55641;SDS011;41509;53.108;6.100;2023-03-23T07:31:43;21.73;;;2.67;;
55641;SDS011;41509;53.108;6.100;2023-03-23T07:34:14;18.38;;;2.97;;
55641;SDS011;41509;53.108;6.100;2023-03-23T07:36:43;12.82;;;3.15;;
55641;SDS011;41509;53.108;6.100;2023-03-23T07:39:09;18.88;;;2.78;;
55641;SDS011;41509;53.108;6.100;2023-03-23T07:41:40;20.25;;;3.80;;
55641;SDS011;41509;53.108;6.100;2023-03-23T07:44:09;19.98;;;2.92;;
55641;SDS011;41509;53.108;6.100;2023-03-23T07:46:45;14.48;;;2.58;;
55641;SDS011;41509;53.108;6.100;2023-03-23T07:49:18;21.33;;;3.47;;
55641;SDS011;41509;53.108;6.100;2023-03-23T07:51:45;18.90;;;2.70;;
55641;SDS011;41509;53.108;6.100;2023-03-23T07:54:25;18.30;;;3.55;;
55641;SDS011;41509;53.108;6.100;2023-03-23T07:56:53;14.93;;;2.85;;
55641;SDS011;41509;53.108;6.100;2023-03-23T08:00:14;14.00;;;3.22;;
55641;SDS011;41509;53.108;6.100;2023-03-23T08:02:42;18.17;;;2.60;;
55641;SDS011;41509;53.108;6.100;2023-03-23T08:05:10;15.95;;;2.88;;
55641;SDS011;41509;53.108;6.100;2023-03-23T08:07:40;17.23;;;2.75;;
55641;SDS011;41509;53.108;6.100;2023-03-23T08:10:11;25.40;;;4.03;;
55641;SDS011;41509;53.108;6.100;2023-03-23T08:12:40;12.35;;;2.97;;
55641;SDS011;41509;53.108;6.100;2023-03-23T08:15:10;17.08;;;3.10;;
55641;SDS011;41509;53.108;6.100;2023-03-23T08:17:40;21.55;;;3.38;;
55641;SDS011;41509;53.108;6.100;2023-03-23T08:22:43;25.25;;;3.20;;
55641;SDS011;41509;53.108;6.100;2023-03-23T08:25:15;15.45;;;3.35;;
55641;SDS011;41509;53.108;6.100;2023-03-23T08:27:46;19.58;;;3.70;;
55641;SDS011;41509;53.108;6.100;2023-03-23T08:30:18;20.73;;;3.95;;
55641;SDS011;41509;53.108;6.100;2023-03-23T08:32:45;18.80;;;3.35;;
55641;SDS011;41509;53.108;6.100;2023-03-23T08:35:15;15.07;;;3.20;;
55641;SDS011;41509;53.108;6.100;2023-03-23T08:37:44;23.98;;;3.63;;
55641;SDS011;41509;53.108;6.100;2023-03-23T08:40:12;15.77;;;3.97;;
55641;SDS011;41509;53.108;6.100;2023-03-23T08:42:42;24.25;;;4.60;;
55641;SDS011;41509;53.108;6.100;2023-03-23T08:45:16;13.30;;;4.27;;
55641;SDS011;41509;53.108;6.100;2023-03-23T08:48:13;21.85;;;3.70;;
55641;SDS011;41509;53.108;6.100;2023-03-23T08:50:44;25.83;;;3.90;;
55641;SDS011;41509;53.108;6.100;2023-03-23T08:53:10;24.33;;;4.63;;
55641;SDS011;41509;53.108;6.100;2023-03-23T08:55:37;17.55;;;3.78;;
55641;SDS011;41509;53.108;6.100;2023-03-23T08:58:08;21.25;;;3.55;;
55641;SDS011;41509;53.108;6.100;2023-03-23T09:00:37;13.70;;;2.88;;
55641;SDS011;41509;53.108;6.100;2023-03-23T09:03:04;21.15;;;4.03;;
55641;SDS011;41509;53.108;6.100;2023-03-23T09:05:40;18.52;;;3.10;;
55641;SDS011;41509;53.108;6.100;2023-03-23T09:08:11;28.33;;;3.40;;
55641;SDS011;41509;53.108;6.100;2023-03-23T09:10:37;21.70;;;3.85;;
55641;SDS011;41509;53.108;6.100;2023-03-23T09:13:05;19.65;;;3.80;;
55641;SDS011;41509;53.108;6.100;2023-03-23T09:15:40;19.73;;;3.22;;
55641;SDS011;41509;53.108;6.100;2023-03-23T09:18:06;17.42;;;3.17;;
55641;SDS011;41509;53.108;6.100;2023-03-23T09:20:40;25.23;;;3.03;;
55641;SDS011;41509;53.108;6.100;2023-03-23T09:23:07;21.23;;;3.22;;
55641;SDS011;41509;53.108;6.100;2023-03-23T09:25:41;21.77;;;3.67;;
55641;SDS011;41509;53.108;6.100;2023-03-23T09:28:09;17.85;;;3.33;;
55641;SDS011;41509;53.108;6.100;2023-03-23T09:33:36;18.60;;;3.20;;
55641;SDS011;41509;53.108;6.100;2023-03-23T09:36:05;20.42;;;4.88;;
55641;SDS011;41509;53.108;6.100;2023-03-23T09:38:44;25.17;;;4.00;;
55641;SDS011;41509;53.108;6.100;2023-03-23T09:50:18;18.65;;;2.83;;
55641;SDS011;41509;53.108;6.100;2023-03-23T09:52:51;14.30;;;3.78;;
55641;SDS011;41509;53.108;6.100;2023-03-23T09:55:32;14.38;;;3.33;;
55641;SDS011;41509;53.108;6.100;2023-03-23T09:58:31;19.13;;;3.15;;
55641;SDS011;41509;53.108;6.100;2023-03-23T10:01:31;21.63;;;3.33;;
55641;SDS011;41509;53.108;6.100;2023-03-23T10:04:24;19.13;;;3.53;;
55641;SDS011;41509;53.108;6.100;2023-03-23T10:06:56;12.40;;;2.90;;
55641;SDS011;41509;53.108;6.100;2023-03-23T10:09:25;16.50;;;2.47;;
55641;SDS011;41509;53.108;6.100;2023-03-23T10:11:55;17.88;;;3.63;;
55641;SDS011;41509;53.108;6.100;2023-03-23T10:14:35;18.42;;;2.65;;
55641;SDS011;41509;53.108;6.100;2023-03-23T10:17:25;13.27;;;2.90;;
55641;SDS011;41509;53.108;6.100;2023-03-23T10:23:05;18.25;;;3.00;;
55641;SDS011;41509;53.108;6.100;2023-03-23T10:25:35;14.52;;;2.70;;
55641;SDS011;41509;53.108;6.100;2023-03-23T10:28:13;22.02;;;3.25;;
55641;SDS011;41509;53.108;6.100;2023-03-23T10:30:53;12.50;;;2.80;;
55641;SDS011;41509;53.108;6.100;2023-03-23T10:33:30;12.75;;;3.42;;
55641;SDS011;41509;53.108;6.100;2023-03-23T10:36:06;14.25;;;2.72;;
55641;SDS011;41509;53.108;6.100;2023-03-23T10:41:29;12.85;;;3.00;;
55641;SDS011;41509;53.108;6.100;2023-03-23T10:55:38;15.60;;;2.83;;
55641;SDS011;41509;53.108;6.100;2023-03-23T10:58:06;17.17;;;2.58;;
55641;SDS011;41509;53.108;6.100;2023-03-23T11:00:44;14.50;;;2.97;;
55641;SDS011;41509;53.108;6.100;2023-03-23T11:03:21;11.45;;;2.38;;
55641;SDS011;41509;53.108;6.100;2023-03-23T11:06:01;12.02;;;2.28;;
55641;SDS011;41509;53.108;6.100;2023-03-23T11:08:33;11.38;;;2.25;;
55641;SDS011;41509;53.108;6.100;2023-03-23T11:11:26;10.85;;;2.33;;
55641;SDS011;41509;53.108;6.100;2023-03-23T11:14:11;16.33;;;2.67;;
55641;SDS011;41509;53.108;6.100;2023-03-23T11:16:56;9.65;;;2.20;;
55641;SDS011;41509;53.108;6.100;2023-03-23T11:19:29;11.82;;;1.95;;
55641;SDS011;41509;53.108;6.100;2023-03-23T11:24:31;10.52;;;2.30;;
55641;SDS011;41509;53.108;6.100;2023-03-23T11:27:21;8.93;;;1.90;;
55641;SDS011;41509;53.108;6.100;2023-03-23T11:32:37;17.77;;;2.08;;
55641;SDS011;41509;53.108;6.100;2023-03-23T11:35:15;11.55;;;2.10;;
55641;SDS011;41509;53.108;6.100;2023-03-23T11:37:52;10.48;;;1.90;;
55641;SDS011;41509;53.108;6.100;2023-03-23T11:40:27;9.40;;;2.05;;
55641;SDS011;41509;53.108;6.100;2023-03-23T11:42:59;11.18;;;1.67;;
55641;SDS011;41509;53.108;6.100;2023-03-23T11:53:45;7.55;;;1.52;;
55641;SDS011;41509;53.108;6.100;2023-03-23T11:59:11;7.30;;;1.30;;
55641;SDS011;41509;53.108;6.100;2023-03-23T12:04:28;9.00;;;1.98;;
55641;SDS011;41509;53.108;6.100;2023-03-23T12:07:18;9.38;;;1.73;;
55641;SDS011;41509;53.108;6.100;2023-03-23T12:10:41;9.90;;;2.33;;
55641;SDS011;41509;53.108;6.100;2023-03-23T12:18:48;16.98;;;3.50;;
55641;SDS011;41509;53.108;6.100;2023-03-23T12:27:25;9.30;;;2.35;;
55641;SDS011;41509;53.108;6.100;2023-03-23T12:44:50;7.80;;;1.58;;
55641;SDS011;41509;53.108;6.100;2023-03-23T12:49:55;13.18;;;2.10;;
55641;SDS011;41509;53.108;6.100;2023-03-23T12:52:47;15.77;;;2.60;;
55641;SDS011;41509;53.108;6.100;2023-03-23T12:55:51;12.45;;;1.90;;
55641;SDS011;41509;53.108;6.100;2023-03-23T12:58:56;12.35;;;1.77;;
55641;SDS011;41509;53.108;6.100;2023-03-23T13:01:30;11.13;;;1.88;;
55641;SDS011;41509;53.108;6.100;2023-03-23T13:04:11;12.85;;;2.13;;
55641;SDS011;41509;53.108;6.100;2023-03-23T13:06:44;7.80;;;1.85;;
55641;SDS011;41509;53.108;6.100;2023-03-23T13:12:23;25.35;;;2.50;;
55641;SDS011;41509;53.108;6.100;2023-03-23T13:15:00;11.05;;;2.58;;
55641;SDS011;41509;53.108;6.100;2023-03-23T13:17:50;12.63;;;2.75;;
55641;SDS011;41509;53.108;6.100;2023-03-23T13:23:22;11.47;;;1.83;;
55641;SDS011;41509;53.108;6.100;2023-03-23T13:28:22;15.63;;;2.45;;
55641;SDS011;41509;53.108;6.100;2023-03-23T13:31:04;12.07;;;3.97;;
55641;SDS011;41509;53.108;6.100;2023-03-23T13:33:57;10.02;;;2.28;;
55641;SDS011;41509;53.108;6.100;2023-03-23T13:36:27;5.30;;;1.70;;
55641;SDS011;41509;53.108;6.100;2023-03-23T13:39:24;9.95;;;2.42;;
55641;SDS011;41509;53.108;6.100;2023-03-23T13:49:51;15.48;;;2.33;;
55641;SDS011;41509;53.108;6.100;2023-03-23T14:10:57;11.95;;;2.45;;
55641;SDS011;41509;53.108;6.100;2023-03-23T14:13:32;9.35;;;2.47;;
55641;SDS011;41509;53.108;6.100;2023-03-23T14:16:14;6.30;;;2.20;;
55641;SDS011;41509;53.108;6.100;2023-03-23T14:18:48;7.05;;;1.80;;
55641;SDS011;41509;53.108;6.100;2023-03-23T14:21:26;15.32;;;2.30;;
55641;SDS011;41509;53.108;6.100;2023-03-23T14:23:56;10.23;;;1.95;;
55641;SDS011;41509;53.108;6.100;2023-03-23T14:26:25;9.30;;;1.85;;
55641;SDS011;41509;53.108;6.100;2023-03-23T14:28:51;6.00;;;1.42;;
55641;SDS011;41509;53.108;6.100;2023-03-23T14:31:19;11.88;;;1.50;;
55641;SDS011;41509;53.108;6.100;2023-03-23T14:33:50;6.03;;;1.85;;
55641;SDS011;41509;53.108;6.100;2023-03-23T14:36:21;9.63;;;1.33;;
55641;SDS011;41509;53.108;6.100;2023-03-23T14:38:55;8.23;;;1.60;;
55641;SDS011;41509;53.108;6.100;2023-03-23T14:41:23;6.90;;;1.70;;
55641;SDS011;41509;53.108;6.100;2023-03-23T14:43:52;5.85;;;1.10;;
55641;SDS011;41509;53.108;6.100;2023-03-23T14:46:23;7.43;;;1.50;;
55641;SDS011;41509;53.108;6.100;2023-03-23T14:48:49;12.68;;;1.90;;
55641;SDS011;41509;53.108;6.100;2023-03-23T14:51:18;8.45;;;1.40;;
55641;SDS011;41509;53.108;6.100;2023-03-23T14:53:46;8.30;;;1.35;;
55641;SDS011;41509;53.108;6.100;2023-03-23T14:56:18;5.18;;;1.42;;
55641;SDS011;41509;53.108;6.100;2023-03-23T14:58:48;7.32;;;1.20;;
55641;SDS011;41509;53.108;6.100;2023-03-23T15:01:20;6.70;;;1.45;;
55641;SDS011;41509;53.108;6.100;2023-03-23T15:03:57;11.68;;;1.85;;
55641;SDS011;41509;53.108;6.100;2023-03-23T15:06:31;7.78;;;1.70;;
55641;SDS011;41509;53.108;6.100;2023-03-23T15:08:59;9.38;;;1.52;;
55641;SDS011;41509;53.108;6.100;2023-03-23T15:11:34;9.70;;;1.65;;
55641;SDS011;41509;53.108;6.100;2023-03-23T15:16:39;8.88;;;1.67;;
55641;SDS011;41509;53.108;6.100;2023-03-23T15:19:16;10.75;;;1.58;;
55641;SDS011;41509;53.108;6.100;2023-03-23T15:21:52;7.18;;;1.40;;
55641;SDS011;41509;53.108;6.100;2023-03-23T15:24:27;10.52;;;2.03;;
55641;SDS011;41509;53.108;6.100;2023-03-23T15:27:22;13.30;;;1.83;;
55641;SDS011;41509;53.108;6.100;2023-03-23T15:29:59;9.68;;;1.50;;
55641;SDS011;41509;53.108;6.100;2023-03-23T15:32:40;6.45;;;1.20;;
55641;SDS011;41509;53.108;6.100;2023-03-23T15:35:13;12.77;;;2.05;;
55641;SDS011;41509;53.108;6.100;2023-03-23T15:37:42;10.20;;;1.70;;
55641;SDS011;41509;53.108;6.100;2023-03-23T15:40:15;6.32;;;1.42;;
55641;SDS011;41509;53.108;6.100;2023-03-23T15:42:42;9.70;;;2.22;;
55641;SDS011;41509;53.108;6.100;2023-03-23T15:47:44;11.13;;;2.13;;
55641;SDS011;41509;53.108;6.100;2023-03-23T15:52:42;9.23;;;2.08;;
55641;SDS011;41509;53.108;6.100;2023-03-23T15:55:19;14.05;;;2.72;;
55641;SDS011;41509;53.108;6.100;2023-03-23T15:57:45;12.98;;;2.17;;
55641;SDS011;41509;53.108;6.100;2023-03-23T16:00:10;14.63;;;2.20;;
55641;SDS011;41509;53.108;6.100;2023-03-23T16:02:37;8.30;;;1.75;;
55641;SDS011;41509;53.108;6.100;2023-03-23T16:05:02;10.70;;;2.10;;
55641;SDS011;41509;53.108;6.100;2023-03-23T16:07:29;11.20;;;2.17;;
55641;SDS011;41509;53.108;6.100;2023-03-23T16:09:55;11.88;;;2.00;;
55641;SDS011;41509;53.108;6.100;2023-03-23T16:12:20;7.50;;;1.90;;
55641;SDS011;41509;53.108;6.100;2023-03-23T16:14:49;12.40;;;2.63;;
55641;SDS011;41509;53.108;6.100;2023-03-23T16:17:16;11.13;;;1.73;;
55641;SDS011;41509;53.108;6.100;2023-03-23T16:19:44;11.25;;;1.95;;
55641;SDS011;41509;53.108;6.100;2023-03-23T16:22:09;13.43;;;2.28;;
55641;SDS011;41509;53.108;6.100;2023-03-23T16:24:41;14.25;;;2.67;;
55641;SDS011;41509;53.108;6.100;2023-03-23T16:27:09;10.50;;;1.77;;
55641;SDS011;41509;53.108;6.100;2023-03-23T16:29:36;8.60;;;2.53;;
55641;SDS011;41509;53.108;6.100;2023-03-23T16:32:04;15.90;;;3.17;;
55641;SDS011;41509;53.108;6.100;2023-03-23T16:34:30;7.80;;;2.05;;
55641;SDS011;41509;53.108;6.100;2023-03-23T16:37:02;12.15;;;3.10;;
55641;SDS011;41509;53.108;6.100;2023-03-23T16:39:28;15.05;;;2.70;;
55641;SDS011;41509;53.108;6.100;2023-03-23T16:41:56;14.88;;;3.30;;
55641;SDS011;41509;53.108;6.100;2023-03-23T16:44:24;15.65;;;3.40;;
55641;SDS011;41509;53.108;6.100;2023-03-23T16:46:52;11.15;;;3.65;;
55641;SDS011;41509;53.108;6.100;2023-03-23T16:49:18;14.63;;;2.67;;
55641;SDS011;41509;53.108;6.100;2023-03-23T16:51:47;13.30;;;2.78;;
55641;SDS011;41509;53.108;6.100;2023-03-23T16:54:15;9.65;;;2.72;;
55641;SDS011;41509;53.108;6.100;2023-03-23T16:56:43;12.75;;;3.53;;
55641;SDS011;41509;53.108;6.100;2023-03-23T16:59:11;12.90;;;2.03;;
55641;SDS011;41509;53.108;6.100;2023-03-23T17:01:43;17.08;;;2.42;;
55641;SDS011;41509;53.108;6.100;2023-03-23T17:04:11;15.60;;;2.33;;
55641;SDS011;41509;53.108;6.100;2023-03-23T17:06:42;14.38;;;2.97;;
55641;SDS011;41509;53.108;6.100;2023-03-23T17:09:10;12.23;;;2.75;;
55641;SDS011;41509;53.108;6.100;2023-03-23T17:11:35;18.40;;;2.93;;
55641;SDS011;41509;53.108;6.100;2023-03-23T17:14:04;10.85;;;2.30;;
55641;SDS011;41509;53.108;6.100;2023-03-23T17:16:30;14.05;;;3.45;;
55641;SDS011;41509;53.108;6.100;2023-03-23T17:19:05;10.45;;;3.20;;
55641;SDS011;41509;53.108;6.100;2023-03-23T17:21:38;19.15;;;3.05;;
55641;SDS011;41509;53.108;6.100;2023-03-23T17:24:13;23.48;;;4.65;;
55641;SDS011;41509;53.108;6.100;2023-03-23T17:26:39;12.50;;;3.63;;
55641;SDS011;41509;53.108;6.100;2023-03-23T17:29:10;13.82;;;3.00;;
55641;SDS011;41509;53.108;6.100;2023-03-23T17:31:40;14.48;;;3.05;;
55641;SDS011;41509;53.108;6.100;2023-03-23T17:34:07;15.10;;;2.75;;
55641;SDS011;41509;53.108;6.100;2023-03-23T17:36:35;15.98;;;2.78;;
55641;SDS011;41509;53.108;6.100;2023-03-23T17:39:10;16.58;;;3.35;;
55641;SDS011;41509;53.108;6.100;2023-03-23T17:41:35;14.23;;;2.75;;
55641;SDS011;41509;53.108;6.100;2023-03-23T17:44:01;16.70;;;2.78;;
55641;SDS011;41509;53.108;6.100;2023-03-23T17:46:27;13.57;;;3.07;;
55641;SDS011;41509;53.108;6.100;2023-03-23T17:48:52;15.27;;;3.27;;
55641;SDS011;41509;53.108;6.100;2023-03-23T17:51:18;14.87;;;2.43;;
55641;SDS011;41509;53.108;6.100;2023-03-23T17:53:45;10.25;;;2.78;;
55641;SDS011;41509;53.108;6.100;2023-03-23T17:56:11;12.05;;;2.67;;
55641;SDS011;41509;53.108;6.100;2023-03-23T17:58:36;18.77;;;3.63;;